sensor_id;sensor_type;location;lat;lon;timestamp;temperature;humidity
37408;DHT22;24866;50.248;8.252;2022-09-01T00:01:48;15.20;99.90
37408;DHT22;24866;50.248;8.252;2022-09-01T00:04:20;15.30;99.90
37408;DHT22;24866;50.248;8.252;2022-09-01T00:06:51;15.30;99.90
37408;DHT22;24866;50.248;8.252;2022-09-01T00:09:22;15.20;99.90
37408;DHT22;24866;50.248;8.252;2022-09-01T00:11:54;15.20;99.90
37408;DHT22;24866;50.248;8.252;2022-09-01T00:14:26;15.10;99.90
37408;DHT22;24866;50.248;8.252;2022-09-01T00:16:58;14.90;99.90
37408;DHT22;24866;50.248;8.252;2022-09-01T00:19:29;15.00;99.90
37408;DHT22;24866;50.248;8.252;2022-09-01T00:22:01;15.10;99.90
37408;DHT22;24866;50.248;8.252;2022-09-01T00:24:31;14.90;99.90
37408;DHT22;24866;50.248;8.252;2022-09-01T00:27:02;14.80;99.90
37408;DHT22;24866;50.248;8.252;2022-09-01T00:29:32;14.60;99.90
37408;DHT22;24866;50.248;8.252;2022-09-01T00:32:04;14.60;99.90
37408;DHT22;24866;50.248;8.252;2022-09-01T00:34:34;14.70;99.90
37408;DHT22;24866;50.248;8.252;2022-09-01T00:37:04;14.70;99.90
37408;DHT22;24866;50.248;8.252;2022-09-01T00:39:34;14.80;99.90
37408;DHT22;24866;50.248;8.252;2022-09-01T00:42:04;14.80;99.90
37408;DHT22;24866;50.248;8.252;2022-09-01T00:44:34;14.80;99.90
37408;DHT22;24866;50.248;8.252;2022-09-01T00:47:07;14.90;99.90
37408;DHT22;24866;50.248;8.252;2022-09-01T00:49:39;14.70;99.90
37408;DHT22;24866;50.248;8.252;2022-09-01T00:52:15;14.60;99.90
37408;DHT22;24866;50.248;8.252;2022-09-01T00:54:49;14.60;99.90
37408;DHT22;24866;50.248;8.252;2022-09-01T00:57:20;14.50;99.90
37408;DHT22;24866;50.248;8.252;2022-09-01T00:59:53;14.50;99.90
37408;DHT22;24866;50.248;8.252;2022-09-01T01:02:25;14.50;99.90
37408;DHT22;24866;50.248;8.252;2022-09-01T01:04:55;14.50;99.90
37408;DHT22;24866;50.248;8.252;2022-09-01T01:07:27;14.50;99.90
37408;DHT22;24866;50.248;8.252;2022-09-01T01:09:57;14.40;99.90
37408;DHT22;24866;50.248;8.252;2022-09-01T01:12:27;14.10;99.90
37408;DHT22;24866;50.248;8.252;2022-09-01T01:14:58;14.00;99.90
37408;DHT22;24866;50.248;8.252;2022-09-01T01:17:30;14.00;99.90
37408;DHT22;24866;50.248;8.252;2022-09-01T01:20:01;14.00;99.90
37408;DHT22;24866;50.248;8.252;2022-09-01T01:22:55;14.10;99.90
37408;DHT22;24866;50.248;8.252;2022-09-01T01:25:36;13.80;99.90
37408;DHT22;24866;50.248;8.252;2022-09-01T01:28:09;13.70;99.90
37408;DHT22;24866;50.248;8.252;2022-09-01T01:30:42;13.60;99.90
37408;DHT22;24866;50.248;8.252;2022-09-01T01:33:12;13.60;99.90
37408;DHT22;24866;50.248;8.252;2022-09-01T01:35:42;13.90;99.90
37408;DHT22;24866;50.248;8.252;2022-09-01T01:38:12;13.90;99.90
37408;DHT22;24866;50.248;8.252;2022-09-01T01:40:45;13.80;99.90
37408;DHT22;24866;50.248;8.252;2022-09-01T01:43:15;13.60;99.90
37408;DHT22;24866;50.248;8.252;2022-09-01T01:45:48;13.80;99.90
37408;DHT22;24866;50.248;8.252;2022-09-01T01:48:20;13.80;99.90
37408;DHT22;24866;50.248;8.252;2022-09-01T01:50:53;13.90;99.90
37408;DHT22;24866;50.248;8.252;2022-09-01T01:53:25;13.80;99.90
37408;DHT22;24866;50.248;8.252;2022-09-01T01:55:57;13.40;99.90
37408;DHT22;24866;50.248;8.252;2022-09-01T01:58:27;13.50;99.90
37408;DHT22;24866;50.248;8.252;2022-09-01T02:00:57;13.40;99.90
37408;DHT22;24866;50.248;8.252;2022-09-01T02:03:32;13.50;99.90
37408;DHT22;24866;50.248;8.252;2022-09-01T02:06:08;13.70;99.90
37408;DHT22;24866;50.248;8.252;2022-09-01T02:08:40;13.70;99.90
37408;DHT22;24866;50.248;8.252;2022-09-01T02:11:11;13.60;99.90
37408;DHT22;24866;50.248;8.252;2022-09-01T02:13:44;13.50;99.90
37408;DHT22;24866;50.248;8.252;2022-09-01T02:16:14;13.50;99.90
37408;DHT22;24866;50.248;8.252;2022-09-01T02:18:45;13.30;99.90
37408;DHT22;24866;50.248;8.252;2022-09-01T02:21:18;13.40;99.90
37408;DHT22;24866;50.248;8.252;2022-09-01T02:23:50;13.40;99.90
37408;DHT22;24866;50.248;8.252;2022-09-01T02:26:31;13.30;99.90
37408;DHT22;24866;50.248;8.252;2022-09-01T02:29:05;13.20;99.90
37408;DHT22;24866;50.248;8.252;2022-09-01T02:31:36;13.10;99.90
37408;DHT22;24866;50.248;8.252;2022-09-01T02:34:08;13.00;99.90
37408;DHT22;24866;50.248;8.252;2022-09-01T02:36:39;13.00;99.90
37408;DHT22;24866;50.248;8.252;2022-09-01T02:39:15;13.10;99.90
37408;DHT22;24866;50.248;8.252;2022-09-01T02:41:48;13.20;99.90
37408;DHT22;24866;50.248;8.252;2022-09-01T02:44:18;13.00;99.90
37408;DHT22;24866;50.248;8.252;2022-09-01T02:46:49;13.00;99.90
37408;DHT22;24866;50.248;8.252;2022-09-01T02:49:21;13.00;99.90
37408;DHT22;24866;50.248;8.252;2022-09-01T02:51:54;13.00;99.90
37408;DHT22;24866;50.248;8.252;2022-09-01T02:54:30;12.90;99.90
37408;DHT22;24866;50.248;8.252;2022-09-01T02:57:01;13.00;99.90
37408;DHT22;24866;50.248;8.252;2022-09-01T02:59:31;13.00;99.90
37408;DHT22;24866;50.248;8.252;2022-09-01T03:02:04;13.10;99.90
37408;DHT22;24866;50.248;8.252;2022-09-01T03:04:36;13.00;99.90
37408;DHT22;24866;50.248;8.252;2022-09-01T03:07:06;13.10;99.90
37408;DHT22;24866;50.248;8.252;2022-09-01T03:09:36;12.80;99.90
37408;DHT22;24866;50.248;8.252;2022-09-01T03:12:10;12.70;99.90
37408;DHT22;24866;50.248;8.252;2022-09-01T03:14:40;12.80;99.90
37408;DHT22;24866;50.248;8.252;2022-09-01T03:17:10;13.00;99.90
37408;DHT22;24866;50.248;8.252;2022-09-01T03:19:41;13.00;99.90
37408;DHT22;24866;50.248;8.252;2022-09-01T03:22:14;12.90;99.90
37408;DHT22;24866;50.248;8.252;2022-09-01T03:24:44;12.80;99.90
37408;DHT22;24866;50.248;8.252;2022-09-01T03:27:15;12.80;99.90
37408;DHT22;24866;50.248;8.252;2022-09-01T03:29:45;12.90;99.90
37408;DHT22;24866;50.248;8.252;2022-09-01T03:32:15;12.70;99.90
37408;DHT22;24866;50.248;8.252;2022-09-01T03:34:45;12.70;99.90
37408;DHT22;24866;50.248;8.252;2022-09-01T03:37:14;12.80;99.90
37408;DHT22;24866;50.248;8.252;2022-09-01T03:39:45;12.90;99.90
37408;DHT22;24866;50.248;8.252;2022-09-01T03:42:16;12.70;99.90
37408;DHT22;24866;50.248;8.252;2022-09-01T03:44:53;12.70;99.90
37408;DHT22;24866;50.248;8.252;2022-09-01T03:47:24;12.60;99.90
37408;DHT22;24866;50.248;8.252;2022-09-01T03:49:54;12.40;99.90
37408;DHT22;24866;50.248;8.252;2022-09-01T03:52:25;12.40;99.90
37408;DHT22;24866;50.248;8.252;2022-09-01T03:54:57;12.60;99.90
37408;DHT22;24866;50.248;8.252;2022-09-01T03:57:28;12.70;99.90
37408;DHT22;24866;50.248;8.252;2022-09-01T03:59:58;12.70;99.90
37408;DHT22;24866;50.248;8.252;2022-09-01T04:02:28;12.70;99.90
37408;DHT22;24866;50.248;8.252;2022-09-01T04:04:58;12.60;99.90
37408;DHT22;24866;50.248;8.252;2022-09-01T04:07:28;12.60;99.90
37408;DHT22;24866;50.248;8.252;2022-09-01T04:09:58;12.50;99.90
37408;DHT22;24866;50.248;8.252;2022-09-01T04:12:29;12.60;99.90
37408;DHT22;24866;50.248;8.252;2022-09-01T04:14:59;12.40;99.90
37408;DHT22;24866;50.248;8.252;2022-09-01T04:17:29;12.30;99.90
37408;DHT22;24866;50.248;8.252;2022-09-01T04:20:17;12.40;99.90
37408;DHT22;24866;50.248;8.252;2022-09-01T04:22:48;12.50;99.90
37408;DHT22;24866;50.248;8.252;2022-09-01T04:25:19;12.50;99.90
37408;DHT22;24866;50.248;8.252;2022-09-01T04:27:54;12.30;99.90
37408;DHT22;24866;50.248;8.252;2022-09-01T04:30:24;12.30;99.90
37408;DHT22;24866;50.248;8.252;2022-09-01T04:32:59;12.50;99.90
37408;DHT22;24866;50.248;8.252;2022-09-01T04:35:29;12.50;99.90
37408;DHT22;24866;50.248;8.252;2022-09-01T04:38:00;12.40;99.90
37408;DHT22;24866;50.248;8.252;2022-09-01T04:40:31;12.40;99.90
37408;DHT22;24866;50.248;8.252;2022-09-01T04:43:03;12.20;99.90
37408;DHT22;24866;50.248;8.252;2022-09-01T04:45:33;11.90;99.90
37408;DHT22;24866;50.248;8.252;2022-09-01T04:48:04;12.10;99.90
37408;DHT22;24866;50.248;8.252;2022-09-01T04:50:34;12.30;99.90
37408;DHT22;24866;50.248;8.252;2022-09-01T04:53:08;12.30;99.90
37408;DHT22;24866;50.248;8.252;2022-09-01T04:55:40;12.10;99.90
37408;DHT22;24866;50.248;8.252;2022-09-01T04:58:15;12.10;99.90
37408;DHT22;24866;50.248;8.252;2022-09-01T05:00:47;12.30;99.90
37408;DHT22;24866;50.248;8.252;2022-09-01T05:03:19;12.40;99.90
37408;DHT22;24866;50.248;8.252;2022-09-01T05:05:52;12.30;99.90
37408;DHT22;24866;50.248;8.252;2022-09-01T05:08:22;12.20;99.90
37408;DHT22;24866;50.248;8.252;2022-09-01T05:10:52;12.20;99.90
37408;DHT22;24866;50.248;8.252;2022-09-01T05:13:25;12.20;99.90
37408;DHT22;24866;50.248;8.252;2022-09-01T05:16:02;12.20;99.90
37408;DHT22;24866;50.248;8.252;2022-09-01T05:18:33;12.20;99.90
37408;DHT22;24866;50.248;8.252;2022-09-01T05:21:05;12.20;99.90
37408;DHT22;24866;50.248;8.252;2022-09-01T05:23:39;12.30;99.90
37408;DHT22;24866;50.248;8.252;2022-09-01T05:26:12;12.50;99.90
37408;DHT22;24866;50.248;8.252;2022-09-01T05:28:47;12.40;99.90
37408;DHT22;24866;50.248;8.252;2022-09-01T05:31:18;12.50;99.90
37408;DHT22;24866;50.248;8.252;2022-09-01T05:33:49;12.50;99.90
37408;DHT22;24866;50.248;8.252;2022-09-01T05:36:22;12.50;99.90
37408;DHT22;24866;50.248;8.252;2022-09-01T05:38:51;12.60;99.90
37408;DHT22;24866;50.248;8.252;2022-09-01T05:41:22;12.80;99.90
37408;DHT22;24866;50.248;8.252;2022-09-01T05:43:53;12.80;99.90
37408;DHT22;24866;50.248;8.252;2022-09-01T05:46:24;12.80;99.90
37408;DHT22;24866;50.248;8.252;2022-09-01T05:48:56;12.80;99.90
37408;DHT22;24866;50.248;8.252;2022-09-01T05:51:29;12.90;99.90
37408;DHT22;24866;50.248;8.252;2022-09-01T05:54:02;13.00;99.90
37408;DHT22;24866;50.248;8.252;2022-09-01T05:56:36;13.20;99.90
37408;DHT22;24866;50.248;8.252;2022-09-01T05:59:11;13.20;99.90
37408;DHT22;24866;50.248;8.252;2022-09-01T06:01:42;13.20;99.90
37408;DHT22;24866;50.248;8.252;2022-09-01T06:04:15;13.20;99.90
37408;DHT22;24866;50.248;8.252;2022-09-01T06:06:47;13.30;99.90
37408;DHT22;24866;50.248;8.252;2022-09-01T06:09:17;13.40;99.90
37408;DHT22;24866;50.248;8.252;2022-09-01T06:11:50;13.50;99.90
37408;DHT22;24866;50.248;8.252;2022-09-01T06:14:24;13.50;99.90
37408;DHT22;24866;50.248;8.252;2022-09-01T06:16:54;13.60;99.90
37408;DHT22;24866;50.248;8.252;2022-09-01T06:19:23;13.70;99.90
37408;DHT22;24866;50.248;8.252;2022-09-01T06:21:54;13.70;99.90
37408;DHT22;24866;50.248;8.252;2022-09-01T06:24:24;13.70;99.90
37408;DHT22;24866;50.248;8.252;2022-09-01T06:26:56;14.00;99.90
37408;DHT22;24866;50.248;8.252;2022-09-01T06:29:28;14.40;99.90
37408;DHT22;24866;50.248;8.252;2022-09-01T06:31:58;14.30;99.90
37408;DHT22;24866;50.248;8.252;2022-09-01T06:34:29;14.30;99.90
37408;DHT22;24866;50.248;8.252;2022-09-01T06:37:01;14.60;99.90
37408;DHT22;24866;50.248;8.252;2022-09-01T06:39:31;14.00;99.90
37408;DHT22;24866;50.248;8.252;2022-09-01T06:42:02;14.50;99.90
37408;DHT22;24866;50.248;8.252;2022-09-01T06:44:33;14.90;99.90
37408;DHT22;24866;50.248;8.252;2022-09-01T06:47:03;15.00;99.90
37408;DHT22;24866;50.248;8.252;2022-09-01T06:49:33;15.30;99.90
37408;DHT22;24866;50.248;8.252;2022-09-01T06:52:04;15.20;99.90
37408;DHT22;24866;50.248;8.252;2022-09-01T06:54:34;15.10;99.90
37408;DHT22;24866;50.248;8.252;2022-09-01T06:57:06;15.20;99.90
37408;DHT22;24866;50.248;8.252;2022-09-01T06:59:38;15.40;99.90
37408;DHT22;24866;50.248;8.252;2022-09-01T07:02:08;15.50;99.90
37408;DHT22;24866;50.248;8.252;2022-09-01T07:04:43;15.40;99.90
37408;DHT22;24866;50.248;8.252;2022-09-01T07:07:13;15.50;99.90
37408;DHT22;24866;50.248;8.252;2022-09-01T07:09:43;15.60;99.90
37408;DHT22;24866;50.248;8.252;2022-09-01T07:12:14;15.80;99.90
37408;DHT22;24866;50.248;8.252;2022-09-01T07:14:48;16.10;99.90
37408;DHT22;24866;50.248;8.252;2022-09-01T07:17:18;16.00;99.90
37408;DHT22;24866;50.248;8.252;2022-09-01T07:19:49;16.00;99.90
37408;DHT22;24866;50.248;8.252;2022-09-01T07:22:19;15.90;99.90
37408;DHT22;24866;50.248;8.252;2022-09-01T07:24:49;16.10;99.90
37408;DHT22;24866;50.248;8.252;2022-09-01T07:27:25;16.30;99.90
37408;DHT22;24866;50.248;8.252;2022-09-01T07:29:57;16.50;99.90
37408;DHT22;24866;50.248;8.252;2022-09-01T07:32:27;16.70;99.90
37408;DHT22;24866;50.248;8.252;2022-09-01T07:34:59;16.90;99.90
37408;DHT22;24866;50.248;8.252;2022-09-01T07:37:29;16.90;99.90
37408;DHT22;24866;50.248;8.252;2022-09-01T07:39:59;16.70;99.90
37408;DHT22;24866;50.248;8.252;2022-09-01T07:42:29;16.80;99.90
37408;DHT22;24866;50.248;8.252;2022-09-01T07:45:01;16.70;99.90
37408;DHT22;24866;50.248;8.252;2022-09-01T07:47:37;16.80;99.90
37408;DHT22;24866;50.248;8.252;2022-09-01T07:50:08;16.60;99.90
37408;DHT22;24866;50.248;8.252;2022-09-01T07:52:40;16.70;99.90
37408;DHT22;24866;50.248;8.252;2022-09-01T07:55:13;17.00;99.90
37408;DHT22;24866;50.248;8.252;2022-09-01T07:57:43;16.90;99.90
37408;DHT22;24866;50.248;8.252;2022-09-01T08:00:15;17.00;99.90
37408;DHT22;24866;50.248;8.252;2022-09-01T08:02:45;17.10;99.90
37408;DHT22;24866;50.248;8.252;2022-09-01T08:05:16;17.20;99.90
37408;DHT22;24866;50.248;8.252;2022-09-01T08:07:50;17.50;99.90
37408;DHT22;24866;50.248;8.252;2022-09-01T08:10:20;17.70;99.90
37408;DHT22;24866;50.248;8.252;2022-09-01T08:12:51;17.70;99.90
37408;DHT22;24866;50.248;8.252;2022-09-01T08:15:23;18.00;99.90
37408;DHT22;24866;50.248;8.252;2022-09-01T08:17:53;18.10;99.90
37408;DHT22;24866;50.248;8.252;2022-09-01T08:20:23;18.40;99.90
37408;DHT22;24866;50.248;8.252;2022-09-01T08:22:53;18.60;99.90
37408;DHT22;24866;50.248;8.252;2022-09-01T08:25:23;18.60;99.90
37408;DHT22;24866;50.248;8.252;2022-09-01T08:27:53;18.70;99.90
37408;DHT22;24866;50.248;8.252;2022-09-01T08:30:25;18.50;99.90
37408;DHT22;24866;50.248;8.252;2022-09-01T08:32:55;18.50;99.90
37408;DHT22;24866;50.248;8.252;2022-09-01T08:35:26;18.80;99.90
37408;DHT22;24866;50.248;8.252;2022-09-01T08:37:57;19.00;99.90
37408;DHT22;24866;50.248;8.252;2022-09-01T08:40:27;19.30;99.90
37408;DHT22;24866;50.248;8.252;2022-09-01T08:43:05;19.30;99.90
37408;DHT22;24866;50.248;8.252;2022-09-01T08:45:44;19.10;99.90
37408;DHT22;24866;50.248;8.252;2022-09-01T08:48:19;19.30;1.00
37408;DHT22;24866;50.248;8.252;2022-09-01T08:50:54;19.40;1.00
37408;DHT22;24866;50.248;8.252;2022-09-01T08:53:27;19.60;99.90
37408;DHT22;24866;50.248;8.252;2022-09-01T08:55:58;19.40;1.00
37408;DHT22;24866;50.248;8.252;2022-09-01T08:58:29;19.50;99.90
37408;DHT22;24866;50.248;8.252;2022-09-01T09:01:09;19.60;49.00
37408;DHT22;24866;50.248;8.252;2022-09-01T09:03:45;20.00;1.00
37408;DHT22;24866;50.248;8.252;2022-09-01T09:06:22;20.00;1.00
37408;DHT22;24866;50.248;8.252;2022-09-01T09:08:56;20.20;99.90
37408;DHT22;24866;50.248;8.252;2022-09-01T09:14:39;20.40;1.00
37408;DHT22;24866;50.248;8.252;2022-09-01T09:17:15;20.40;99.90
37408;DHT22;24866;50.248;8.252;2022-09-01T09:19:48;20.30;99.90
37408;DHT22;24866;50.248;8.252;2022-09-01T09:22:19;20.70;99.90
37408;DHT22;24866;50.248;8.252;2022-09-01T09:24:51;20.90;99.90
37408;DHT22;24866;50.248;8.252;2022-09-01T09:27:24;20.30;99.90
37408;DHT22;24866;50.248;8.252;2022-09-01T09:29:56;20.50;99.90
37408;DHT22;24866;50.248;8.252;2022-09-01T09:32:44;20.70;1.00
37408;DHT22;24866;50.248;8.252;2022-09-01T09:35:25;20.70;99.90
37408;DHT22;24866;50.248;8.252;2022-09-01T09:38:15;20.60;1.00
37408;DHT22;24866;50.248;8.252;2022-09-01T09:41:06;20.70;1.00
37408;DHT22;24866;50.248;8.252;2022-09-01T09:43:41;20.70;1.00
37408;DHT22;24866;50.248;8.252;2022-09-01T09:46:25;20.70;1.00
37408;DHT22;24866;50.248;8.252;2022-09-01T09:49:19;21.00;1.00
37408;DHT22;24866;50.248;8.252;2022-09-01T09:51:53;20.50;1.00
37408;DHT22;24866;50.248;8.252;2022-09-01T09:54:26;20.70;1.00
37408;DHT22;24866;50.248;8.252;2022-09-01T09:57:09;20.70;1.00
37408;DHT22;24866;50.248;8.252;2022-09-01T09:59:43;20.70;1.00
37408;DHT22;24866;50.248;8.252;2022-09-01T10:02:26;21.10;99.90
37408;DHT22;24866;50.248;8.252;2022-09-01T10:05:22;21.60;1.00
37408;DHT22;24866;50.248;8.252;2022-09-01T10:07:53;21.60;99.90
37408;DHT22;24866;50.248;8.252;2022-09-01T10:10:27;21.70;1.00
37408;DHT22;24866;50.248;8.252;2022-09-01T10:12:58;21.40;84.60
37408;DHT22;24866;50.248;8.252;2022-09-01T10:15:31;21.50;18.10
37408;DHT22;24866;50.248;8.252;2022-09-01T10:18:06;21.50;1.00
37408;DHT22;24866;50.248;8.252;2022-09-01T10:20:49;21.90;1.00
37408;DHT22;24866;50.248;8.252;2022-09-01T10:23:22;22.00;73.70
37408;DHT22;24866;50.248;8.252;2022-09-01T10:25:59;21.90;22.90
37408;DHT22;24866;50.248;8.252;2022-09-01T10:28:31;22.10;1.00
37408;DHT22;24866;50.248;8.252;2022-09-01T10:31:02;21.80;1.00
37408;DHT22;24866;50.248;8.252;2022-09-01T10:33:32;22.40;1.00
37408;DHT22;24866;50.248;8.252;2022-09-01T10:36:05;22.90;99.90
37408;DHT22;24866;50.248;8.252;2022-09-01T10:38:35;22.80;99.90
37408;DHT22;24866;50.248;8.252;2022-09-01T10:41:06;22.80;99.90
37408;DHT22;24866;50.248;8.252;2022-09-01T10:43:40;22.50;1.00
37408;DHT22;24866;50.248;8.252;2022-09-01T10:46:41;22.20;1.00
37408;DHT22;24866;50.248;8.252;2022-09-01T10:52:52;23.00;1.00
37408;DHT22;24866;50.248;8.252;2022-09-01T10:55:25;22.90;1.00
37408;DHT22;24866;50.248;8.252;2022-09-01T10:58:07;22.70;99.90
37408;DHT22;24866;50.248;8.252;2022-09-01T11:00:52;22.70;99.90
37408;DHT22;24866;50.248;8.252;2022-09-01T11:03:35;22.90;99.90
37408;DHT22;24866;50.248;8.252;2022-09-01T11:06:07;22.80;99.90
37408;DHT22;24866;50.248;8.252;2022-09-01T11:08:44;23.60;99.90
37408;DHT22;24866;50.248;8.252;2022-09-01T11:11:28;23.50;97.10
37408;DHT22;24866;50.248;8.252;2022-09-01T11:14:00;23.10;27.10
37408;DHT22;24866;50.248;8.252;2022-09-01T11:16:34;22.80;50.50
37408;DHT22;24866;50.248;8.252;2022-09-01T11:19:32;22.90;16.30
37408;DHT22;24866;50.248;8.252;2022-09-01T11:22:10;23.00;1.00
37408;DHT22;24866;50.248;8.252;2022-09-01T11:25:04;23.20;1.00
37408;DHT22;24866;50.248;8.252;2022-09-01T11:28:09;23.10;1.00
37408;DHT22;24866;50.248;8.252;2022-09-01T11:30:43;22.90;1.00
37408;DHT22;24866;50.248;8.252;2022-09-01T11:36:15;23.10;1.00
37408;DHT22;24866;50.248;8.252;2022-09-01T11:38:53;23.70;1.00
37408;DHT22;24866;50.248;8.252;2022-09-01T11:41:28;23.90;1.00
37408;DHT22;24866;50.248;8.252;2022-09-01T11:44:06;24.20;1.00
37408;DHT22;24866;50.248;8.252;2022-09-01T11:46:39;24.60;1.00
37408;DHT22;24866;50.248;8.252;2022-09-01T11:49:25;24.40;1.00
37408;DHT22;24866;50.248;8.252;2022-09-01T11:51:57;24.30;1.00
37408;DHT22;24866;50.248;8.252;2022-09-01T11:54:29;24.10;1.00
37408;DHT22;24866;50.248;8.252;2022-09-01T11:57:25;24.50;1.00
37408;DHT22;24866;50.248;8.252;2022-09-01T11:59:57;24.10;99.90
37408;DHT22;24866;50.248;8.252;2022-09-01T12:02:29;23.80;99.90
37408;DHT22;24866;50.248;8.252;2022-09-01T12:05:03;23.70;99.90
37408;DHT22;24866;50.248;8.252;2022-09-01T12:07:53;23.80;99.90
37408;DHT22;24866;50.248;8.252;2022-09-01T12:10:30;23.80;99.90
37408;DHT22;24866;50.248;8.252;2022-09-01T12:13:05;23.80;99.90
37408;DHT22;24866;50.248;8.252;2022-09-01T12:15:36;23.70;99.90
37408;DHT22;24866;50.248;8.252;2022-09-01T12:18:13;23.80;99.90
37408;DHT22;24866;50.248;8.252;2022-09-01T12:20:48;23.60;99.90
37408;DHT22;24866;50.248;8.252;2022-09-01T12:23:23;24.50;99.90
37408;DHT22;24866;50.248;8.252;2022-09-01T12:25:54;25.00;99.90
37408;DHT22;24866;50.248;8.252;2022-09-01T12:28:28;25.10;99.90
37408;DHT22;24866;50.248;8.252;2022-09-01T12:31:01;25.30;99.90
37408;DHT22;24866;50.248;8.252;2022-09-01T12:33:32;25.20;99.90
37408;DHT22;24866;50.248;8.252;2022-09-01T12:36:20;25.20;99.90
37408;DHT22;24866;50.248;8.252;2022-09-01T12:38:52;24.80;99.90
37408;DHT22;24866;50.248;8.252;2022-09-01T12:41:25;24.70;99.90
37408;DHT22;24866;50.248;8.252;2022-09-01T12:44:31;24.30;99.90
37408;DHT22;24866;50.248;8.252;2022-09-01T12:47:05;24.40;99.90
37408;DHT22;24866;50.248;8.252;2022-09-01T12:49:39;24.40;99.90
37408;DHT22;24866;50.248;8.252;2022-09-01T12:52:16;24.30;99.90
37408;DHT22;24866;50.248;8.252;2022-09-01T12:54:51;24.00;99.90
37408;DHT22;24866;50.248;8.252;2022-09-01T12:57:25;24.20;99.90
37408;DHT22;24866;50.248;8.252;2022-09-01T13:00:13;24.10;99.90
37408;DHT22;24866;50.248;8.252;2022-09-01T13:02:47;24.20;99.90
37408;DHT22;24866;50.248;8.252;2022-09-01T13:05:25;24.10;99.90
37408;DHT22;24866;50.248;8.252;2022-09-01T13:07:58;24.10;90.90
37408;DHT22;24866;50.248;8.252;2022-09-01T13:10:33;24.10;99.90
37408;DHT22;24866;50.248;8.252;2022-09-01T13:13:06;24.20;91.30
37408;DHT22;24866;50.248;8.252;2022-09-01T13:15:39;24.00;29.70
37408;DHT22;24866;50.248;8.252;2022-09-01T13:18:10;23.70;1.00
37408;DHT22;24866;50.248;8.252;2022-09-01T13:20:40;24.10;1.00
37408;DHT22;24866;50.248;8.252;2022-09-01T13:23:10;23.80;1.00
37408;DHT22;24866;50.248;8.252;2022-09-01T13:25:40;23.80;1.00
37408;DHT22;24866;50.248;8.252;2022-09-01T13:28:12;23.70;1.00
37408;DHT22;24866;50.248;8.252;2022-09-01T13:30:46;23.70;1.00
37408;DHT22;24866;50.248;8.252;2022-09-01T13:33:20;23.70;1.00
37408;DHT22;24866;50.248;8.252;2022-09-01T13:35:51;23.40;1.00
37408;DHT22;24866;50.248;8.252;2022-09-01T13:38:21;23.40;1.00
37408;DHT22;24866;50.248;8.252;2022-09-01T13:40:51;23.40;1.00
37408;DHT22;24866;50.248;8.252;2022-09-01T13:43:22;23.40;1.00
37408;DHT22;24866;50.248;8.252;2022-09-01T13:45:56;23.60;1.00
37408;DHT22;24866;50.248;8.252;2022-09-01T13:48:26;23.40;1.00
37408;DHT22;24866;50.248;8.252;2022-09-01T13:50:56;23.40;1.00
37408;DHT22;24866;50.248;8.252;2022-09-01T13:53:26;23.50;1.00
37408;DHT22;24866;50.248;8.252;2022-09-01T13:55:56;23.60;1.00
37408;DHT22;24866;50.248;8.252;2022-09-01T13:58:26;23.60;1.00
37408;DHT22;24866;50.248;8.252;2022-09-01T14:00:58;23.70;1.00
37408;DHT22;24866;50.248;8.252;2022-09-01T14:03:28;23.70;1.00
37408;DHT22;24866;50.248;8.252;2022-09-01T14:05:59;23.80;1.00
37408;DHT22;24866;50.248;8.252;2022-09-01T14:08:29;23.80;1.00
37408;DHT22;24866;50.248;8.252;2022-09-01T14:11:01;23.90;1.00
37408;DHT22;24866;50.248;8.252;2022-09-01T14:13:31;23.90;1.00
37408;DHT22;24866;50.248;8.252;2022-09-01T14:16:09;23.90;1.00
37408;DHT22;24866;50.248;8.252;2022-09-01T14:18:39;23.90;1.00
37408;DHT22;24866;50.248;8.252;2022-09-01T14:21:14;23.80;1.00
37408;DHT22;24866;50.248;8.252;2022-09-01T14:23:44;23.90;1.00
37408;DHT22;24866;50.248;8.252;2022-09-01T14:26:15;23.90;1.00
37408;DHT22;24866;50.248;8.252;2022-09-01T14:28:45;23.90;1.00
37408;DHT22;24866;50.248;8.252;2022-09-01T14:31:17;24.00;1.00
37408;DHT22;24866;50.248;8.252;2022-09-01T14:33:48;24.00;1.00
37408;DHT22;24866;50.248;8.252;2022-09-01T14:36:21;23.90;1.00
37408;DHT22;24866;50.248;8.252;2022-09-01T14:38:52;23.80;1.00
37408;DHT22;24866;50.248;8.252;2022-09-01T14:41:23;24.00;1.00
37408;DHT22;24866;50.248;8.252;2022-09-01T14:43:54;24.00;1.00
37408;DHT22;24866;50.248;8.252;2022-09-01T14:46:28;24.00;1.00
37408;DHT22;24866;50.248;8.252;2022-09-01T14:49:02;24.00;1.00
37408;DHT22;24866;50.248;8.252;2022-09-01T14:51:32;23.90;1.00
37408;DHT22;24866;50.248;8.252;2022-09-01T14:54:04;23.80;1.00
37408;DHT22;24866;50.248;8.252;2022-09-01T14:56:34;23.70;1.00
37408;DHT22;24866;50.248;8.252;2022-09-01T14:59:04;23.80;1.00
37408;DHT22;24866;50.248;8.252;2022-09-01T15:01:38;24.10;1.00
37408;DHT22;24866;50.248;8.252;2022-09-01T15:04:08;24.20;1.00
37408;DHT22;24866;50.248;8.252;2022-09-01T15:06:38;24.00;1.00
37408;DHT22;24866;50.248;8.252;2022-09-01T15:09:08;23.90;1.00
37408;DHT22;24866;50.248;8.252;2022-09-01T15:11:40;23.70;1.00
37408;DHT22;24866;50.248;8.252;2022-09-01T15:14:10;23.60;1.00
37408;DHT22;24866;50.248;8.252;2022-09-01T15:16:41;23.50;1.00
37408;DHT22;24866;50.248;8.252;2022-09-01T15:19:12;23.50;1.00
37408;DHT22;24866;50.248;8.252;2022-09-01T15:21:44;23.40;1.00
37408;DHT22;24866;50.248;8.252;2022-09-01T15:24:14;23.40;1.00
37408;DHT22;24866;50.248;8.252;2022-09-01T15:26:46;23.40;1.00
37408;DHT22;24866;50.248;8.252;2022-09-01T15:29:16;23.30;1.00
37408;DHT22;24866;50.248;8.252;2022-09-01T15:31:47;23.30;1.00
37408;DHT22;24866;50.248;8.252;2022-09-01T15:34:17;23.30;1.00
37408;DHT22;24866;50.248;8.252;2022-09-01T15:36:47;23.30;1.00
37408;DHT22;24866;50.248;8.252;2022-09-01T15:39:17;23.20;1.00
37408;DHT22;24866;50.248;8.252;2022-09-01T15:41:47;23.20;1.00
37408;DHT22;24866;50.248;8.252;2022-09-01T15:44:17;23.20;1.00
37408;DHT22;24866;50.248;8.252;2022-09-01T15:46:48;23.20;1.00
37408;DHT22;24866;50.248;8.252;2022-09-01T15:49:18;23.20;1.00
37408;DHT22;24866;50.248;8.252;2022-09-01T15:51:48;23.20;1.00
37408;DHT22;24866;50.248;8.252;2022-09-01T15:54:19;23.30;1.00
37408;DHT22;24866;50.248;8.252;2022-09-01T15:56:49;23.20;1.00
37408;DHT22;24866;50.248;8.252;2022-09-01T15:59:19;23.30;1.00
37408;DHT22;24866;50.248;8.252;2022-09-01T16:01:50;23.30;1.00
37408;DHT22;24866;50.248;8.252;2022-09-01T16:04:21;23.30;1.00
37408;DHT22;24866;50.248;8.252;2022-09-01T16:06:51;23.40;1.00
37408;DHT22;24866;50.248;8.252;2022-09-01T16:09:24;23.30;1.00
37408;DHT22;24866;50.248;8.252;2022-09-01T16:11:54;23.50;1.00
37408;DHT22;24866;50.248;8.252;2022-09-01T16:14:24;23.50;1.00
37408;DHT22;24866;50.248;8.252;2022-09-01T16:17:01;23.40;1.00
37408;DHT22;24866;50.248;8.252;2022-09-01T16:19:37;23.40;1.00
37408;DHT22;24866;50.248;8.252;2022-09-01T16:22:16;23.60;1.00